sensor_id;sensor_type;location;lat;lon;timestamp;temperature;humidity
58309;DHT22;44117;57.142;24.826;2023-03-01T00:00:03;0.30;99.90
58309;DHT22;44117;57.142;24.826;2023-03-01T00:02:31;0.30;99.90
58309;DHT22;44117;57.142;24.826;2023-03-01T00:04:58;0.40;99.90
58309;DHT22;44117;57.142;24.826;2023-03-01T00:07:25;0.30;99.90
58309;DHT22;44117;57.142;24.826;2023-03-01T00:09:52;0.40;99.90
58309;DHT22;44117;57.142;24.826;2023-03-01T00:12:19;0.30;99.90
58309;DHT22;44117;57.142;24.826;2023-03-01T00:14:46;0.30;99.90
58309;DHT22;44117;57.142;24.826;2023-03-01T00:17:13;0.30;99.90
58309;DHT22;44117;57.142;24.826;2023-03-01T00:19:40;0.20;99.90
58309;DHT22;44117;57.142;24.826;2023-03-01T00:22:07;0.20;99.90
58309;DHT22;44117;57.142;24.826;2023-03-01T00:24:34;0.20;99.90
58309;DHT22;44117;57.142;24.826;2023-03-01T00:27:01;0.20;99.90
58309;DHT22;44117;57.142;24.826;2023-03-01T00:29:28;0.20;99.90
58309;DHT22;44117;57.142;24.826;2023-03-01T00:31:55;0.20;99.90
58309;DHT22;44117;57.142;24.826;2023-03-01T00:34:22;0.20;99.90
58309;DHT22;44117;57.142;24.826;2023-03-01T00:36:49;0.20;99.90
58309;DHT22;44117;57.142;24.826;2023-03-01T00:39:16;0.20;99.90
58309;DHT22;44117;57.142;24.826;2023-03-01T00:41:43;0.10;99.90
58309;DHT22;44117;57.142;24.826;2023-03-01T00:44:11;0.10;99.90
58309;DHT22;44117;57.142;24.826;2023-03-01T00:46:38;0.20;99.90
58309;DHT22;44117;57.142;24.826;2023-03-01T00:49:05;0.30;99.90
58309;DHT22;44117;57.142;24.826;2023-03-01T00:51:32;0.30;99.90
58309;DHT22;44117;57.142;24.826;2023-03-01T00:54:00;0.30;99.90
58309;DHT22;44117;57.142;24.826;2023-03-01T00:56:28;0.20;99.90
58309;DHT22;44117;57.142;24.826;2023-03-01T00:58:55;0.30;99.90
58309;DHT22;44117;57.142;24.826;2023-03-01T01:01:24;0.10;99.90
58309;DHT22;44117;57.142;24.826;2023-03-01T01:03:58;0.20;99.90
58309;DHT22;44117;57.142;24.826;2023-03-01T01:06:29;0.10;99.90
58309;DHT22;44117;57.142;24.826;2023-03-01T01:08:57;0.10;99.90
58309;DHT22;44117;57.142;24.826;2023-03-01T01:11:25;0.10;99.90
58309;DHT22;44117;57.142;24.826;2023-03-01T01:13:52;0.10;99.90
58309;DHT22;44117;57.142;24.826;2023-03-01T01:16:20;0.10;99.90
58309;DHT22;44117;57.142;24.826;2023-03-01T01:18:47;0.10;99.90
58309;DHT22;44117;57.142;24.826;2023-03-01T01:21:16;0.00;99.90
58309;DHT22;44117;57.142;24.826;2023-03-01T01:23:44;0.00;99.90
58309;DHT22;44117;57.142;24.826;2023-03-01T01:26:12;0.00;99.90
58309;DHT22;44117;57.142;24.826;2023-03-01T01:28:40;0.10;99.90
58309;DHT22;44117;57.142;24.826;2023-03-01T01:31:07;0.10;99.90
58309;DHT22;44117;57.142;24.826;2023-03-01T01:33:35;0.00;99.90
58309;DHT22;44117;57.142;24.826;2023-03-01T01:36:02;0.00;99.90
58309;DHT22;44117;57.142;24.826;2023-03-01T01:38:30;0.00;99.90
58309;DHT22;44117;57.142;24.826;2023-03-01T01:40:57;0.00;99.90
58309;DHT22;44117;57.142;24.826;2023-03-01T01:43:34;0.10;99.90
58309;DHT22;44117;57.142;24.826;2023-03-01T01:46:03;0.10;99.90
58309;DHT22;44117;57.142;24.826;2023-03-01T01:48:37;0.00;99.90
58309;DHT22;44117;57.142;24.826;2023-03-01T01:51:18;0.00;99.90
58309;DHT22;44117;57.142;24.826;2023-03-01T01:53:47;0.00;99.90
58309;DHT22;44117;57.142;24.826;2023-03-01T01:56:15;0.00;99.90
58309;DHT22;44117;57.142;24.826;2023-03-01T01:58:42;0.00;99.90
58309;DHT22;44117;57.142;24.826;2023-03-01T02:01:10;0.00;99.90
58309;DHT22;44117;57.142;24.826;2023-03-01T02:03:38;0.00;99.90
58309;DHT22;44117;57.142;24.826;2023-03-01T02:06:12;-0.10;99.90
58309;DHT22;44117;57.142;24.826;2023-03-01T02:08:42;-0.10;99.90
58309;DHT22;44117;57.142;24.826;2023-03-01T02:11:10;-0.10;99.90
58309;DHT22;44117;57.142;24.826;2023-03-01T02:13:41;-0.20;99.90
58309;DHT22;44117;57.142;24.826;2023-03-01T02:16:09;-0.30;99.90
58309;DHT22;44117;57.142;24.826;2023-03-01T02:18:36;-0.30;99.90
58309;DHT22;44117;57.142;24.826;2023-03-01T02:21:10;-0.30;99.90
58309;DHT22;44117;57.142;24.826;2023-03-01T02:23:39;-0.30;99.90
58309;DHT22;44117;57.142;24.826;2023-03-01T02:28:38;-0.30;99.90
58309;DHT22;44117;57.142;24.826;2023-03-01T02:31:08;-0.30;99.90
58309;DHT22;44117;57.142;24.826;2023-03-01T02:33:54;-0.30;99.90
58309;DHT22;44117;57.142;24.826;2023-03-01T02:36:26;-0.30;99.90
58309;DHT22;44117;57.142;24.826;2023-03-01T02:38:57;-0.20;99.90
58309;DHT22;44117;57.142;24.826;2023-03-01T02:41:25;-0.20;99.90
58309;DHT22;44117;57.142;24.826;2023-03-01T02:43:53;-0.20;99.90
58309;DHT22;44117;57.142;24.826;2023-03-01T02:46:21;-0.20;99.90
58309;DHT22;44117;57.142;24.826;2023-03-01T02:48:50;-0.30;99.90
58309;DHT22;44117;57.142;24.826;2023-03-01T02:54:06;-0.20;99.90
58309;DHT22;44117;57.142;24.826;2023-03-01T02:56:34;-0.20;99.90
58309;DHT22;44117;57.142;24.826;2023-03-01T02:59:02;-0.20;99.90
58309;DHT22;44117;57.142;24.826;2023-03-01T03:01:30;-0.20;99.90
58309;DHT22;44117;57.142;24.826;2023-03-01T03:04:04;-0.30;99.90
58309;DHT22;44117;57.142;24.826;2023-03-01T03:06:32;-0.30;99.90
58309;DHT22;44117;57.142;24.826;2023-03-01T03:08:59;-0.30;99.90
58309;DHT22;44117;57.142;24.826;2023-03-01T03:11:26;-0.30;99.90
58309;DHT22;44117;57.142;24.826;2023-03-01T03:13:53;-0.30;99.90
58309;DHT22;44117;57.142;24.826;2023-03-01T03:16:20;-0.30;99.90
58309;DHT22;44117;57.142;24.826;2023-03-01T03:18:47;-0.30;99.90
58309;DHT22;44117;57.142;24.826;2023-03-01T03:21:15;-0.30;99.90
58309;DHT22;44117;57.142;24.826;2023-03-01T03:23:43;-0.30;99.90
58309;DHT22;44117;57.142;24.826;2023-03-01T03:26:10;-0.30;99.90
58309;DHT22;44117;57.142;24.826;2023-03-01T03:28:41;-0.20;99.90
58309;DHT22;44117;57.142;24.826;2023-03-01T03:31:08;-0.10;99.90
58309;DHT22;44117;57.142;24.826;2023-03-01T03:33:35;-0.20;99.90
58309;DHT22;44117;57.142;24.826;2023-03-01T03:36:03;-0.20;99.90
58309;DHT22;44117;57.142;24.826;2023-03-01T03:38:30;-0.20;99.90
58309;DHT22;44117;57.142;24.826;2023-03-01T03:41:04;-0.20;99.90
58309;DHT22;44117;57.142;24.826;2023-03-01T03:43:35;-0.20;99.90
58309;DHT22;44117;57.142;24.826;2023-03-01T03:46:02;-0.20;99.90
58309;DHT22;44117;57.142;24.826;2023-03-01T03:48:50;0.00;99.90
58309;DHT22;44117;57.142;24.826;2023-03-01T03:51:17;0.00;99.90
58309;DHT22;44117;57.142;24.826;2023-03-01T03:53:45;0.00;99.90
58309;DHT22;44117;57.142;24.826;2023-03-01T03:56:12;0.00;99.90
58309;DHT22;44117;57.142;24.826;2023-03-01T03:58:39;0.00;99.90
58309;DHT22;44117;57.142;24.826;2023-03-01T04:01:06;0.00;99.90
58309;DHT22;44117;57.142;24.826;2023-03-01T04:03:33;0.00;99.90
58309;DHT22;44117;57.142;24.826;2023-03-01T04:06:02;0.00;99.90
58309;DHT22;44117;57.142;24.826;2023-03-01T04:08:29;0.00;99.90
58309;DHT22;44117;57.142;24.826;2023-03-01T04:10:57;-0.10;99.90
58309;DHT22;44117;57.142;24.826;2023-03-01T04:13:25;0.00;99.90
58309;DHT22;44117;57.142;24.826;2023-03-01T04:15:52;0.00;99.90
58309;DHT22;44117;57.142;24.826;2023-03-01T04:18:20;0.10;99.90
58309;DHT22;44117;57.142;24.826;2023-03-01T04:20:47;0.10;99.90
58309;DHT22;44117;57.142;24.826;2023-03-01T04:23:16;0.20;99.90
58309;DHT22;44117;57.142;24.826;2023-03-01T04:25:49;0.20;99.90
58309;DHT22;44117;57.142;24.826;2023-03-01T04:30:47;0.20;99.90
58309;DHT22;44117;57.142;24.826;2023-03-01T04:33:14;0.20;99.90
58309;DHT22;44117;57.142;24.826;2023-03-01T04:35:41;0.20;99.90
58309;DHT22;44117;57.142;24.826;2023-03-01T04:38:08;0.20;99.90
58309;DHT22;44117;57.142;24.826;2023-03-01T04:40:36;0.30;99.90
58309;DHT22;44117;57.142;24.826;2023-03-01T04:43:03;0.30;99.90
58309;DHT22;44117;57.142;24.826;2023-03-01T04:45:31;0.30;99.90
58309;DHT22;44117;57.142;24.826;2023-03-01T04:47:59;0.30;99.90
58309;DHT22;44117;57.142;24.826;2023-03-01T04:50:26;0.40;99.90
58309;DHT22;44117;57.142;24.826;2023-03-01T04:52:53;0.40;99.90
58309;DHT22;44117;57.142;24.826;2023-03-01T04:55:20;0.50;99.90
58309;DHT22;44117;57.142;24.826;2023-03-01T04:57:47;0.40;99.90
58309;DHT22;44117;57.142;24.826;2023-03-01T05:00:15;0.40;99.90
58309;DHT22;44117;57.142;24.826;2023-03-01T05:02:51;0.40;99.90
58309;DHT22;44117;57.142;24.826;2023-03-01T05:05:23;0.30;99.90
58309;DHT22;44117;57.142;24.826;2023-03-01T05:08:02;0.30;99.90
58309;DHT22;44117;57.142;24.826;2023-03-01T05:10:30;0.20;99.90
58309;DHT22;44117;57.142;24.826;2023-03-01T05:12:58;0.20;99.90
58309;DHT22;44117;57.142;24.826;2023-03-01T05:15:26;0.10;99.90
58309;DHT22;44117;57.142;24.826;2023-03-01T05:17:54;0.20;99.90
58309;DHT22;44117;57.142;24.826;2023-03-01T05:20:21;0.20;99.90
58309;DHT22;44117;57.142;24.826;2023-03-01T05:22:51;0.20;99.90
58309;DHT22;44117;57.142;24.826;2023-03-01T05:25:19;0.20;99.90
58309;DHT22;44117;57.142;24.826;2023-03-01T05:27:48;0.30;99.90
58309;DHT22;44117;57.142;24.826;2023-03-01T05:30:15;0.20;99.90
58309;DHT22;44117;57.142;24.826;2023-03-01T05:32:44;0.20;99.90
58309;DHT22;44117;57.142;24.826;2023-03-01T05:35:12;0.20;99.90
58309;DHT22;44117;57.142;24.826;2023-03-01T05:37:43;0.20;99.90
58309;DHT22;44117;57.142;24.826;2023-03-01T05:40:11;0.20;99.90
58309;DHT22;44117;57.142;24.826;2023-03-01T05:43:03;0.20;99.90
58309;DHT22;44117;57.142;24.826;2023-03-01T05:45:32;0.20;99.90
58309;DHT22;44117;57.142;24.826;2023-03-01T05:48:02;0.20;99.90
58309;DHT22;44117;57.142;24.826;2023-03-01T05:50:29;0.30;99.90
58309;DHT22;44117;57.142;24.826;2023-03-01T05:53:03;0.40;99.90
58309;DHT22;44117;57.142;24.826;2023-03-01T05:55:32;0.40;99.90
58309;DHT22;44117;57.142;24.826;2023-03-01T05:58:02;0.50;99.90
58309;DHT22;44117;57.142;24.826;2023-03-01T06:00:30;0.60;99.90
58309;DHT22;44117;57.142;24.826;2023-03-01T06:02:58;0.70;99.90
58309;DHT22;44117;57.142;24.826;2023-03-01T06:05:25;0.80;99.90
58309;DHT22;44117;57.142;24.826;2023-03-01T06:07:52;0.90;99.90
58309;DHT22;44117;57.142;24.826;2023-03-01T06:10:20;1.10;99.90
58309;DHT22;44117;57.142;24.826;2023-03-01T06:12:48;1.10;99.90
58309;DHT22;44117;57.142;24.826;2023-03-01T06:15:15;1.20;99.90
58309;DHT22;44117;57.142;24.826;2023-03-01T06:17:43;1.20;99.90
58309;DHT22;44117;57.142;24.826;2023-03-01T06:22:38;1.30;99.90
58309;DHT22;44117;57.142;24.826;2023-03-01T06:25:05;1.40;99.90
58309;DHT22;44117;57.142;24.826;2023-03-01T06:27:33;1.40;99.90
58309;DHT22;44117;57.142;24.826;2023-03-01T06:30:00;1.50;99.90
58309;DHT22;44117;57.142;24.826;2023-03-01T06:32:27;1.40;99.90
58309;DHT22;44117;57.142;24.826;2023-03-01T06:34:54;1.60;99.90
58309;DHT22;44117;57.142;24.826;2023-03-01T06:37:21;1.60;99.90
58309;DHT22;44117;57.142;24.826;2023-03-01T06:39:48;1.70;99.90
58309;DHT22;44117;57.142;24.826;2023-03-01T06:42:16;1.60;99.90
58309;DHT22;44117;57.142;24.826;2023-03-01T06:44:43;1.80;99.90
58309;DHT22;44117;57.142;24.826;2023-03-01T06:47:11;1.90;99.90
58309;DHT22;44117;57.142;24.826;2023-03-01T06:49:38;2.00;99.90
58309;DHT22;44117;57.142;24.826;2023-03-01T06:52:09;2.00;99.90
58309;DHT22;44117;57.142;24.826;2023-03-01T06:54:36;2.10;99.90
58309;DHT22;44117;57.142;24.826;2023-03-01T06:57:03;2.10;99.90
58309;DHT22;44117;57.142;24.826;2023-03-01T06:59:30;2.00;99.90
58309;DHT22;44117;57.142;24.826;2023-03-01T07:01:58;2.00;99.90
58309;DHT22;44117;57.142;24.826;2023-03-01T07:04:25;2.00;99.90
58309;DHT22;44117;57.142;24.826;2023-03-01T07:06:55;2.10;99.90
58309;DHT22;44117;57.142;24.826;2023-03-01T07:09:32;2.00;99.90
58309;DHT22;44117;57.142;24.826;2023-03-01T07:11:59;2.00;99.90
58309;DHT22;44117;57.142;24.826;2023-03-01T07:14:26;2.10;99.90
58309;DHT22;44117;57.142;24.826;2023-03-01T07:16:53;2.10;99.90
58309;DHT22;44117;57.142;24.826;2023-03-01T07:19:21;2.20;99.90
58309;DHT22;44117;57.142;24.826;2023-03-01T07:21:48;2.30;99.90
58309;DHT22;44117;57.142;24.826;2023-03-01T07:24:15;2.20;99.90
58309;DHT22;44117;57.142;24.826;2023-03-01T07:26:42;2.40;99.90
58309;DHT22;44117;57.142;24.826;2023-03-01T07:29:09;2.50;99.90
58309;DHT22;44117;57.142;24.826;2023-03-01T07:31:36;2.50;99.90
58309;DHT22;44117;57.142;24.826;2023-03-01T07:34:03;2.60;99.90
58309;DHT22;44117;57.142;24.826;2023-03-01T07:36:31;2.60;99.90
58309;DHT22;44117;57.142;24.826;2023-03-01T07:38:58;2.70;99.90
58309;DHT22;44117;57.142;24.826;2023-03-01T07:41:25;2.90;99.90
58309;DHT22;44117;57.142;24.826;2023-03-01T07:43:52;3.00;99.90
58309;DHT22;44117;57.142;24.826;2023-03-01T07:46:19;3.10;99.90
58309;DHT22;44117;57.142;24.826;2023-03-01T07:48:47;3.20;99.90
58309;DHT22;44117;57.142;24.826;2023-03-01T07:51:14;3.10;99.90
58309;DHT22;44117;57.142;24.826;2023-03-01T07:53:41;3.20;99.90
58309;DHT22;44117;57.142;24.826;2023-03-01T07:56:12;3.10;99.90
58309;DHT22;44117;57.142;24.826;2023-03-01T07:58:40;3.10;99.90
58309;DHT22;44117;57.142;24.826;2023-03-01T08:01:08;3.00;99.90
58309;DHT22;44117;57.142;24.826;2023-03-01T08:03:36;3.00;99.90
58309;DHT22;44117;57.142;24.826;2023-03-01T08:06:03;3.00;99.90
58309;DHT22;44117;57.142;24.826;2023-03-01T08:08:31;3.20;99.90
58309;DHT22;44117;57.142;24.826;2023-03-01T08:10:59;3.50;99.90
58309;DHT22;44117;57.142;24.826;2023-03-01T08:13:26;3.30;99.90
58309;DHT22;44117;57.142;24.826;2023-03-01T08:15:53;3.50;99.90
58309;DHT22;44117;57.142;24.826;2023-03-01T08:18:20;3.60;99.90
58309;DHT22;44117;57.142;24.826;2023-03-01T08:20:48;3.70;99.90
58309;DHT22;44117;57.142;24.826;2023-03-01T08:23:15;4.00;99.90
58309;DHT22;44117;57.142;24.826;2023-03-01T08:25:42;4.00;99.90
58309;DHT22;44117;57.142;24.826;2023-03-01T08:28:09;4.10;99.90
58309;DHT22;44117;57.142;24.826;2023-03-01T08:30:36;4.20;99.90
58309;DHT22;44117;57.142;24.826;2023-03-01T08:33:03;4.60;99.90
58309;DHT22;44117;57.142;24.826;2023-03-01T08:35:30;4.70;99.90
58309;DHT22;44117;57.142;24.826;2023-03-01T08:37:57;4.80;99.90
58309;DHT22;44117;57.142;24.826;2023-03-01T08:40:24;4.80;99.90
58309;DHT22;44117;57.142;24.826;2023-03-01T08:42:51;4.90;99.90
58309;DHT22;44117;57.142;24.826;2023-03-01T08:45:18;4.90;99.90
58309;DHT22;44117;57.142;24.826;2023-03-01T08:47:45;4.50;99.90
58309;DHT22;44117;57.142;24.826;2023-03-01T08:50:12;4.50;99.90
58309;DHT22;44117;57.142;24.826;2023-03-01T08:52:39;4.70;99.90
58309;DHT22;44117;57.142;24.826;2023-03-01T08:55:06;4.80;99.90
58309;DHT22;44117;57.142;24.826;2023-03-01T08:57:33;5.00;99.90
58309;DHT22;44117;57.142;24.826;2023-03-01T09:00:00;5.20;99.90
58309;DHT22;44117;57.142;24.826;2023-03-01T09:02:28;5.40;99.90
58309;DHT22;44117;57.142;24.826;2023-03-01T09:04:55;5.40;99.90
58309;DHT22;44117;57.142;24.826;2023-03-01T09:07:22;5.50;99.90
58309;DHT22;44117;57.142;24.826;2023-03-01T09:09:55;5.40;99.90
58309;DHT22;44117;57.142;24.826;2023-03-01T09:12:22;5.60;99.90
58309;DHT22;44117;57.142;24.826;2023-03-01T09:14:49;5.60;99.90
58309;DHT22;44117;57.142;24.826;2023-03-01T09:17:16;5.60;99.90
58309;DHT22;44117;57.142;24.826;2023-03-01T09:19:43;5.90;99.90
58309;DHT22;44117;57.142;24.826;2023-03-01T09:22:10;6.10;99.90
58309;DHT22;44117;57.142;24.826;2023-03-01T09:24:37;6.10;99.90
58309;DHT22;44117;57.142;24.826;2023-03-01T09:27:04;6.10;99.90
58309;DHT22;44117;57.142;24.826;2023-03-01T09:29:36;6.10;99.90
58309;DHT22;44117;57.142;24.826;2023-03-01T09:32:03;6.10;99.90
58309;DHT22;44117;57.142;24.826;2023-03-01T09:34:30;6.10;99.30
58309;DHT22;44117;57.142;24.826;2023-03-01T09:36:57;6.40;99.90
58309;DHT22;44117;57.142;24.826;2023-03-01T09:39:25;6.60;99.50
58309;DHT22;44117;57.142;24.826;2023-03-01T09:44:38;7.50;95.50
58309;DHT22;44117;57.142;24.826;2023-03-01T09:47:12;8.60;91.10
58309;DHT22;44117;57.142;24.826;2023-03-01T09:49:43;8.80;84.40
58309;DHT22;44117;57.142;24.826;2023-03-01T09:54:42;9.50;81.20
58309;DHT22;44117;57.142;24.826;2023-03-01T09:57:19;9.70;78.40
58309;DHT22;44117;57.142;24.826;2023-03-01T10:02:38;10.80;71.60
58309;DHT22;44117;57.142;24.826;2023-03-01T10:10:34;11.00;68.00
58309;DHT22;44117;57.142;24.826;2023-03-01T10:13:10;11.40;65.70
58309;DHT22;44117;57.142;24.826;2023-03-01T10:15:45;10.90;65.80
58309;DHT22;44117;57.142;24.826;2023-03-01T10:18:16;10.90;65.70
58309;DHT22;44117;57.142;24.826;2023-03-01T10:20:51;11.20;64.20
58309;DHT22;44117;57.142;24.826;2023-03-01T10:23:19;12.30;64.20
58309;DHT22;44117;57.142;24.826;2023-03-01T10:26:30;12.50;59.10
58309;DHT22;44117;57.142;24.826;2023-03-01T10:28:44;11.90;61.40
58309;DHT22;44117;57.142;24.826;2023-03-01T10:31:21;12.30;61.60
58309;DHT22;44117;57.142;24.826;2023-03-01T10:33:49;12.10;62.00
58309;DHT22;44117;57.142;24.826;2023-03-01T10:36:24;12.10;62.00
58309;DHT22;44117;57.142;24.826;2023-03-01T10:38:55;11.30;64.30
58309;DHT22;44117;57.142;24.826;2023-03-01T10:41:24;12.60;62.40
58309;DHT22;44117;57.142;24.826;2023-03-01T10:43:55;12.80;60.90
58309;DHT22;44117;57.142;24.826;2023-03-01T10:51:46;12.40;61.00
58309;DHT22;44117;57.142;24.826;2023-03-01T10:54:25;12.50;60.10
58309;DHT22;44117;57.142;24.826;2023-03-01T10:56:55;13.10;60.20
58309;DHT22;44117;57.142;24.826;2023-03-01T10:59:29;12.90;59.90
58309;DHT22;44117;57.142;24.826;2023-03-01T11:04:47;13.70;57.70
58309;DHT22;44117;57.142;24.826;2023-03-01T11:07:22;12.90;59.30
58309;DHT22;44117;57.142;24.826;2023-03-01T11:09:49;13.30;58.00
58309;DHT22;44117;57.142;24.826;2023-03-01T11:12:17;12.70;59.60
58309;DHT22;44117;57.142;24.826;2023-03-01T11:14:48;13.30;58.40
58309;DHT22;44117;57.142;24.826;2023-03-01T11:17:18;13.50;57.60
58309;DHT22;44117;57.142;24.826;2023-03-01T11:22:33;13.00;57.90
58309;DHT22;44117;57.142;24.826;2023-03-01T11:25:02;13.50;58.70
58309;DHT22;44117;57.142;24.826;2023-03-01T11:27:37;14.10;56.20
58309;DHT22;44117;57.142;24.826;2023-03-01T11:30:29;14.20;55.20
58309;DHT22;44117;57.142;24.826;2023-03-01T11:32:56;13.20;56.20
58309;DHT22;44117;57.142;24.826;2023-03-01T11:35:24;11.80;58.00
58309;DHT22;44117;57.142;24.826;2023-03-01T11:45:30;12.10;58.60
58309;DHT22;44117;57.142;24.826;2023-03-01T11:48:05;12.60;58.60
58309;DHT22;44117;57.142;24.826;2023-03-01T11:50:47;12.80;57.20
58309;DHT22;44117;57.142;24.826;2023-03-01T12:03:52;13.20;55.00
58309;DHT22;44117;57.142;24.826;2023-03-01T12:06:24;12.90;56.00
58309;DHT22;44117;57.142;24.826;2023-03-01T12:09:01;13.80;55.40
58309;DHT22;44117;57.142;24.826;2023-03-01T12:27:20;15.20;51.60
58309;DHT22;44117;57.142;24.826;2023-03-01T12:37:54;14.00;52.40
58309;DHT22;44117;57.142;24.826;2023-03-01T12:40:27;13.30;54.50
58309;DHT22;44117;57.142;24.826;2023-03-01T12:45:47;13.60;54.30
58309;DHT22;44117;57.142;24.826;2023-03-01T12:50:52;14.20;54.90
58309;DHT22;44117;57.142;24.826;2023-03-01T12:53:34;14.30;54.90
58309;DHT22;44117;57.142;24.826;2023-03-01T12:56:05;15.40;54.30
58309;DHT22;44117;57.142;24.826;2023-03-01T12:58:35;14.60;51.30
58309;DHT22;44117;57.142;24.826;2023-03-01T13:01:21;14.10;53.30
58309;DHT22;44117;57.142;24.826;2023-03-01T13:03:59;13.70;53.30
58309;DHT22;44117;57.142;24.826;2023-03-01T13:06:39;14.00;54.20
58309;DHT22;44117;57.142;24.826;2023-03-01T13:11:41;15.20;53.40
58309;DHT22;44117;57.142;24.826;2023-03-01T13:16:48;14.90;54.40
58309;DHT22;44117;57.142;24.826;2023-03-01T13:19:24;14.10;52.70
58309;DHT22;44117;57.142;24.826;2023-03-01T13:21:52;14.00;54.90
58309;DHT22;44117;57.142;24.826;2023-03-01T13:24:40;14.10;55.90
58309;DHT22;44117;57.142;24.826;2023-03-01T13:32:32;13.80;56.00
58309;DHT22;44117;57.142;24.826;2023-03-01T13:37:43;14.00;54.90
58309;DHT22;44117;57.142;24.826;2023-03-01T13:42:45;12.50;58.00
58309;DHT22;44117;57.142;24.826;2023-03-01T13:45:36;12.80;59.80
58309;DHT22;44117;57.142;24.826;2023-03-01T13:48:26;13.30;57.80
58309;DHT22;44117;57.142;24.826;2023-03-01T13:50:57;13.60;57.20
58309;DHT22;44117;57.142;24.826;2023-03-01T13:53:26;13.70;55.70
58309;DHT22;44117;57.142;24.826;2023-03-01T13:56:00;14.60;57.40
58309;DHT22;44117;57.142;24.826;2023-03-01T13:58:29;15.20;55.60
58309;DHT22;44117;57.142;24.826;2023-03-01T14:00:57;15.40;54.30
58309;DHT22;44117;57.142;24.826;2023-03-01T14:03:24;15.70;53.70
58309;DHT22;44117;57.142;24.826;2023-03-01T14:08:38;16.20;52.80
58309;DHT22;44117;57.142;24.826;2023-03-01T14:19:24;14.30;55.80
58309;DHT22;44117;57.142;24.826;2023-03-01T14:24:31;14.90;56.20
58309;DHT22;44117;57.142;24.826;2023-03-01T14:27:00;15.40;53.90
58309;DHT22;44117;57.142;24.826;2023-03-01T14:29:33;14.90;53.00
58309;DHT22;44117;57.142;24.826;2023-03-01T14:32:11;12.70;55.70
58309;DHT22;44117;57.142;24.826;2023-03-01T14:34:42;11.50;58.30
58309;DHT22;44117;57.142;24.826;2023-03-01T14:37:11;11.50;59.20
58309;DHT22;44117;57.142;24.826;2023-03-01T14:39:38;10.00;60.90
58309;DHT22;44117;57.142;24.826;2023-03-01T14:42:05;8.90;62.90
58309;DHT22;44117;57.142;24.826;2023-03-01T14:44:42;8.40;64.80
58309;DHT22;44117;57.142;24.826;2023-03-01T14:47:11;7.60;67.90
58309;DHT22;44117;57.142;24.826;2023-03-01T14:49:40;6.60;69.30
58309;DHT22;44117;57.142;24.826;2023-03-01T14:52:17;6.40;71.20
58309;DHT22;44117;57.142;24.826;2023-03-01T14:54:46;6.20;72.80
58309;DHT22;44117;57.142;24.826;2023-03-01T14:57:16;6.00;73.30
58309;DHT22;44117;57.142;24.826;2023-03-01T14:59:43;5.80;75.60
58309;DHT22;44117;57.142;24.826;2023-03-01T15:02:21;5.60;77.50
58309;DHT22;44117;57.142;24.826;2023-03-01T15:04:49;5.40;77.70
58309;DHT22;44117;57.142;24.826;2023-03-01T15:07:17;5.40;79.10
58309;DHT22;44117;57.142;24.826;2023-03-01T15:09:44;5.10;80.40
58309;DHT22;44117;57.142;24.826;2023-03-01T15:14:54;5.00;84.60
58309;DHT22;44117;57.142;24.826;2023-03-01T15:17:31;5.00;86.20
58309;DHT22;44117;57.142;24.826;2023-03-01T15:19:59;5.00;87.90
58309;DHT22;44117;57.142;24.826;2023-03-01T15:22:26;5.10;87.50
58309;DHT22;44117;57.142;24.826;2023-03-01T15:24:53;5.10;87.80
58309;DHT22;44117;57.142;24.826;2023-03-01T15:27:22;5.00;90.40
58309;DHT22;44117;57.142;24.826;2023-03-01T15:29:50;4.90;90.40
58309;DHT22;44117;57.142;24.826;2023-03-01T15:32:29;4.90;90.50
58309;DHT22;44117;57.142;24.826;2023-03-01T15:34:58;4.80;91.20
58309;DHT22;44117;57.142;24.826;2023-03-01T15:40:01;4.70;92.80
58309;DHT22;44117;57.142;24.826;2023-03-01T15:45:19;4.60;93.40
58309;DHT22;44117;57.142;24.826;2023-03-01T15:47:51;4.40;93.50
58309;DHT22;44117;57.142;24.826;2023-03-01T15:50:23;4.30;94.40
58309;DHT22;44117;57.142;24.826;2023-03-01T15:52:51;4.20;95.10
58309;DHT22;44117;57.142;24.826;2023-03-01T15:55:19;4.20;96.10
58309;DHT22;44117;57.142;24.826;2023-03-01T15:57:47;4.10;96.50
58309;DHT22;44117;57.142;24.826;2023-03-01T16:00:14;4.10;97.50
58309;DHT22;44117;57.142;24.826;2023-03-01T16:02:42;4.00;98.10
58309;DHT22;44117;57.142;24.826;2023-03-01T16:05:15;4.00;99.30
58309;DHT22;44117;57.142;24.826;2023-03-01T16:07:44;3.90;99.40
58309;DHT22;44117;57.142;24.826;2023-03-01T16:10:11;3.90;99.90
58309;DHT22;44117;57.142;24.826;2023-03-01T16:12:39;3.90;99.90
58309;DHT22;44117;57.142;24.826;2023-03-01T16:15:24;3.80;99.90
58309;DHT22;44117;57.142;24.826;2023-03-01T16:17:51;3.60;99.90
58309;DHT22;44117;57.142;24.826;2023-03-01T16:20:19;3.50;99.90
58309;DHT22;44117;57.142;24.826;2023-03-01T16:22:54;3.50;99.90
58309;DHT22;44117;57.142;24.826;2023-03-01T16:25:22;3.40;99.90
58309;DHT22;44117;57.142;24.826;2023-03-01T16:27:49;3.30;99.90
58309;DHT22;44117;57.142;24.826;2023-03-01T16:30:20;3.30;99.90
58309;DHT22;44117;57.142;24.826;2023-03-01T16:32:48;3.20;99.90
58309;DHT22;44117;57.142;24.826;2023-03-01T16:35:17;3.20;99.90
58309;DHT22;44117;57.142;24.826;2023-03-01T16:37:45;3.20;99.90
58309;DHT22;44117;57.142;24.826;2023-03-01T16:40:19;3.00;99.90
58309;DHT22;44117;57.142;24.826;2023-03-01T16:42:47;3.00;99.90
58309;DHT22;44117;57.142;24.826;2023-03-01T16:45:15;2.90;99.90
58309;DHT22;44117;57.142;24.826;2023-03-01T16:47:51;2.90;99.90
58309;DHT22;44117;57.142;24.826;2023-03-01T16:50:22;2.90;99.90
58309;DHT22;44117;57.142;24.826;2023-03-01T16:52:49;2.80;99.90
58309;DHT22;44117;57.142;24.826;2023-03-01T16:55:16;2.80;99.90
58309;DHT22;44117;57.142;24.826;2023-03-01T16:57:43;2.70;99.90
58309;DHT22;44117;57.142;24.826;2023-03-01T17:00:11;2.60;99.90
58309;DHT22;44117;57.142;24.826;2023-03-01T17:02:40;2.60;99.90
58309;DHT22;44117;57.142;24.826;2023-03-01T17:05:08;2.60;99.90
58309;DHT22;44117;57.142;24.826;2023-03-01T17:07:36;2.50;99.90
58309;DHT22;44117;57.142;24.826;2023-03-01T17:10:06;2.50;99.90
58309;DHT22;44117;57.142;24.826;2023-03-01T17:12:34;2.50;99.90
58309;DHT22;44117;57.142;24.826;2023-03-01T17:15:02;2.50;99.90
58309;DHT22;44117;57.142;24.826;2023-03-01T17:17:30;2.50;99.90
58309;DHT22;44117;57.142;24.826;2023-03-01T17:19:57;2.50;99.90
58309;DHT22;44117;57.142;24.826;2023-03-01T17:22:24;2.50;99.90
58309;DHT22;44117;57.142;24.826;2023-03-01T17:24:52;2.50;99.90
58309;DHT22;44117;57.142;24.826;2023-03-01T17:27:19;2.40;99.90
58309;DHT22;44117;57.142;24.826;2023-03-01T17:29:47;2.40;99.90
58309;DHT22;44117;57.142;24.826;2023-03-01T17:32:14;2.40;99.90
58309;DHT22;44117;57.142;24.826;2023-03-01T17:34:42;2.40;99.90
58309;DHT22;44117;57.142;24.826;2023-03-01T17:37:09;2.50;99.90
58309;DHT22;44117;57.142;24.826;2023-03-01T17:39:36;2.40;99.90